sensor_id;sensor_type;location;lat;lon;timestamp;temperature;humidity
7998;DHT22;4044;49.814;7.828;2023-06-24T00:01:14;15.20;99.90
7998;DHT22;4044;49.814;7.828;2023-06-24T00:03:39;15.20;99.90
7998;DHT22;4044;49.814;7.828;2023-06-24T00:06:05;15.20;99.90
7998;DHT22;4044;49.814;7.828;2023-06-24T00:08:30;15.20;99.90
7998;DHT22;4044;49.814;7.828;2023-06-24T00:11:02;15.30;99.90
7998;DHT22;4044;49.814;7.828;2023-06-24T00:13:28;15.30;99.90
7998;DHT22;4044;49.814;7.828;2023-06-24T00:15:57;15.30;99.90
7998;DHT22;4044;49.814;7.828;2023-06-24T00:18:22;15.30;99.90
7998;DHT22;4044;49.814;7.828;2023-06-24T00:20:50;15.30;99.90
7998;DHT22;4044;49.814;7.828;2023-06-24T00:23:17;15.20;99.90
7998;DHT22;4044;49.814;7.828;2023-06-24T00:25:46;15.10;99.90
7998;DHT22;4044;49.814;7.828;2023-06-24T00:28:11;15.00;99.90
7998;DHT22;4044;49.814;7.828;2023-06-24T00:30:37;15.00;99.90
7998;DHT22;4044;49.814;7.828;2023-06-24T00:33:02;14.90;99.90
7998;DHT22;4044;49.814;7.828;2023-06-24T00:35:28;14.90;99.90
7998;DHT22;4044;49.814;7.828;2023-06-24T00:37:53;14.90;99.90
7998;DHT22;4044;49.814;7.828;2023-06-24T00:40:23;15.00;99.90
7998;DHT22;4044;49.814;7.828;2023-06-24T00:42:49;14.90;99.90
7998;DHT22;4044;49.814;7.828;2023-06-24T00:45:15;14.90;99.90
7998;DHT22;4044;49.814;7.828;2023-06-24T00:47:41;14.90;99.90
7998;DHT22;4044;49.814;7.828;2023-06-24T00:50:08;14.80;99.90
7998;DHT22;4044;49.814;7.828;2023-06-24T00:52:34;14.80;99.90
7998;DHT22;4044;49.814;7.828;2023-06-24T00:55:02;14.70;99.90
7998;DHT22;4044;49.814;7.828;2023-06-24T00:57:28;14.70;99.90
7998;DHT22;4044;49.814;7.828;2023-06-24T00:59:54;14.70;99.90
7998;DHT22;4044;49.814;7.828;2023-06-24T01:02:22;14.70;99.90
7998;DHT22;4044;49.814;7.828;2023-06-24T01:04:53;14.70;99.90
7998;DHT22;4044;49.814;7.828;2023-06-24T01:07:20;14.60;99.90
7998;DHT22;4044;49.814;7.828;2023-06-24T01:09:46;14.60;99.90
7998;DHT22;4044;49.814;7.828;2023-06-24T01:12:11;14.60;99.90
7998;DHT22;4044;49.814;7.828;2023-06-24T01:14:37;14.60;99.90
7998;DHT22;4044;49.814;7.828;2023-06-24T01:17:09;14.60;99.90
7998;DHT22;4044;49.814;7.828;2023-06-24T01:19:47;14.60;99.90
7998;DHT22;4044;49.814;7.828;2023-06-24T01:31:19;14.40;99.90
7998;DHT22;4044;49.814;7.828;2023-06-24T01:33:58;14.40;99.90
7998;DHT22;4044;49.814;7.828;2023-06-24T01:36:27;14.40;99.90
7998;DHT22;4044;49.814;7.828;2023-06-24T01:39:03;14.30;99.90
7998;DHT22;4044;49.814;7.828;2023-06-24T01:41:36;14.30;99.90
7998;DHT22;4044;49.814;7.828;2023-06-24T01:44:02;14.30;99.90
7998;DHT22;4044;49.814;7.828;2023-06-24T01:46:29;14.20;99.90
7998;DHT22;4044;49.814;7.828;2023-06-24T01:49:01;14.20;99.90
7998;DHT22;4044;49.814;7.828;2023-06-24T01:51:31;14.20;99.90
7998;DHT22;4044;49.814;7.828;2023-06-24T01:54:01;14.20;99.90
7998;DHT22;4044;49.814;7.828;2023-06-24T01:56:29;14.20;99.90
7998;DHT22;4044;49.814;7.828;2023-06-24T01:58:57;14.10;99.90
7998;DHT22;4044;49.814;7.828;2023-06-24T02:01:24;14.10;99.90
7998;DHT22;4044;49.814;7.828;2023-06-24T02:03:50;14.10;99.90
7998;DHT22;4044;49.814;7.828;2023-06-24T02:06:19;14.00;99.90
7998;DHT22;4044;49.814;7.828;2023-06-24T02:08:48;14.00;99.90
7998;DHT22;4044;49.814;7.828;2023-06-24T02:11:15;14.00;99.90
7998;DHT22;4044;49.814;7.828;2023-06-24T02:13:43;14.00;99.90
7998;DHT22;4044;49.814;7.828;2023-06-24T02:16:10;14.00;99.90
7998;DHT22;4044;49.814;7.828;2023-06-24T02:18:37;14.00;99.90
7998;DHT22;4044;49.814;7.828;2023-06-24T02:21:04;14.00;99.90
7998;DHT22;4044;49.814;7.828;2023-06-24T02:23:31;14.00;99.90
7998;DHT22;4044;49.814;7.828;2023-06-24T02:25:57;14.00;99.90
7998;DHT22;4044;49.814;7.828;2023-06-24T02:28:25;14.00;99.90
7998;DHT22;4044;49.814;7.828;2023-06-24T02:30:50;13.90;99.90
7998;DHT22;4044;49.814;7.828;2023-06-24T02:33:16;13.80;99.90
7998;DHT22;4044;49.814;7.828;2023-06-24T02:35:42;13.80;99.90
7998;DHT22;4044;49.814;7.828;2023-06-24T02:38:10;13.80;99.90
7998;DHT22;4044;49.814;7.828;2023-06-24T02:40:36;13.80;99.90
7998;DHT22;4044;49.814;7.828;2023-06-24T02:43:02;13.80;99.90
7998;DHT22;4044;49.814;7.828;2023-06-24T02:45:28;13.80;99.90
7998;DHT22;4044;49.814;7.828;2023-06-24T02:47:54;13.80;99.90
7998;DHT22;4044;49.814;7.828;2023-06-24T02:50:21;13.70;99.90
7998;DHT22;4044;49.814;7.828;2023-06-24T02:52:48;13.70;99.90
7998;DHT22;4044;49.814;7.828;2023-06-24T02:55:14;13.70;99.90
7998;DHT22;4044;49.814;7.828;2023-06-24T02:57:40;13.70;99.90
7998;DHT22;4044;49.814;7.828;2023-06-24T03:00:07;13.70;99.90
7998;DHT22;4044;49.814;7.828;2023-06-24T03:02:38;13.70;99.90
7998;DHT22;4044;49.814;7.828;2023-06-24T03:05:05;13.60;99.90
7998;DHT22;4044;49.814;7.828;2023-06-24T03:07:31;13.60;99.90
7998;DHT22;4044;49.814;7.828;2023-06-24T03:10:01;13.60;99.90
7998;DHT22;4044;49.814;7.828;2023-06-24T03:12:28;13.60;99.90
7998;DHT22;4044;49.814;7.828;2023-06-24T03:14:54;13.60;99.90
7998;DHT22;4044;49.814;7.828;2023-06-24T03:17:20;13.60;99.90
7998;DHT22;4044;49.814;7.828;2023-06-24T03:19:45;13.60;99.90
7998;DHT22;4044;49.814;7.828;2023-06-24T03:22:11;13.60;99.90
7998;DHT22;4044;49.814;7.828;2023-06-24T03:24:36;13.70;99.90
7998;DHT22;4044;49.814;7.828;2023-06-24T03:27:02;13.70;99.90
7998;DHT22;4044;49.814;7.828;2023-06-24T03:29:28;13.70;99.90
7998;DHT22;4044;49.814;7.828;2023-06-24T03:31:54;13.70;99.90
7998;DHT22;4044;49.814;7.828;2023-06-24T03:34:19;13.70;99.90
7998;DHT22;4044;49.814;7.828;2023-06-24T03:36:45;13.70;99.90
7998;DHT22;4044;49.814;7.828;2023-06-24T03:39:10;13.50;99.90
7998;DHT22;4044;49.814;7.828;2023-06-24T03:41:36;13.40;99.90
7998;DHT22;4044;49.814;7.828;2023-06-24T03:44:01;13.30;99.90
7998;DHT22;4044;49.814;7.828;2023-06-24T03:46:27;13.30;99.90
7998;DHT22;4044;49.814;7.828;2023-06-24T03:48:58;13.20;99.90
7998;DHT22;4044;49.814;7.828;2023-06-24T03:51:23;13.30;99.90
7998;DHT22;4044;49.814;7.828;2023-06-24T03:53:49;13.40;99.90
7998;DHT22;4044;49.814;7.828;2023-06-24T03:56:15;13.40;99.90
7998;DHT22;4044;49.814;7.828;2023-06-24T03:58:41;13.50;99.90
7998;DHT22;4044;49.814;7.828;2023-06-24T04:01:06;13.50;99.90
7998;DHT22;4044;49.814;7.828;2023-06-24T04:03:32;13.60;99.90
7998;DHT22;4044;49.814;7.828;2023-06-24T04:05:58;13.60;99.90
7998;DHT22;4044;49.814;7.828;2023-06-24T04:08:23;13.60;99.90
7998;DHT22;4044;49.814;7.828;2023-06-24T04:10:55;13.70;99.90
7998;DHT22;4044;49.814;7.828;2023-06-24T04:13:20;13.70;99.90
7998;DHT22;4044;49.814;7.828;2023-06-24T04:15:46;13.80;99.90
7998;DHT22;4044;49.814;7.828;2023-06-24T04:18:11;13.80;99.90
7998;DHT22;4044;49.814;7.828;2023-06-24T04:20:37;13.80;99.90
7998;DHT22;4044;49.814;7.828;2023-06-24T04:23:03;13.90;99.90
7998;DHT22;4044;49.814;7.828;2023-06-24T04:25:30;13.80;99.90
7998;DHT22;4044;49.814;7.828;2023-06-24T04:27:55;13.90;99.90
7998;DHT22;4044;49.814;7.828;2023-06-24T04:30:21;13.90;99.90
7998;DHT22;4044;49.814;7.828;2023-06-24T04:32:46;13.90;99.90
7998;DHT22;4044;49.814;7.828;2023-06-24T04:35:12;13.90;99.90
7998;DHT22;4044;49.814;7.828;2023-06-24T04:37:37;14.00;99.90
7998;DHT22;4044;49.814;7.828;2023-06-24T04:40:03;14.00;99.90
7998;DHT22;4044;49.814;7.828;2023-06-24T04:42:29;14.00;99.90
7998;DHT22;4044;49.814;7.828;2023-06-24T04:44:55;14.00;99.90
7998;DHT22;4044;49.814;7.828;2023-06-24T04:47:20;14.00;99.90
7998;DHT22;4044;49.814;7.828;2023-06-24T04:49:46;13.90;99.90
7998;DHT22;4044;49.814;7.828;2023-06-24T04:52:12;14.00;99.90
7998;DHT22;4044;49.814;7.828;2023-06-24T04:54:38;14.10;99.90
7998;DHT22;4044;49.814;7.828;2023-06-24T04:57:08;14.10;99.90
7998;DHT22;4044;49.814;7.828;2023-06-24T04:59:33;14.20;99.90
7998;DHT22;4044;49.814;7.828;2023-06-24T05:01:59;14.20;99.90
7998;DHT22;4044;49.814;7.828;2023-06-24T05:04:24;14.40;99.90
7998;DHT22;4044;49.814;7.828;2023-06-24T05:06:50;14.50;99.90
7998;DHT22;4044;49.814;7.828;2023-06-24T05:09:16;14.60;99.90
7998;DHT22;4044;49.814;7.828;2023-06-24T05:11:41;14.70;99.90
7998;DHT22;4044;49.814;7.828;2023-06-24T05:14:07;14.80;99.90
7998;DHT22;4044;49.814;7.828;2023-06-24T05:16:33;15.00;99.90
7998;DHT22;4044;49.814;7.828;2023-06-24T05:18:58;15.10;99.90
7998;DHT22;4044;49.814;7.828;2023-06-24T05:21:24;15.20;99.90
7998;DHT22;4044;49.814;7.828;2023-06-24T05:23:49;15.40;99.90
7998;DHT22;4044;49.814;7.828;2023-06-24T05:26:15;15.50;99.90
7998;DHT22;4044;49.814;7.828;2023-06-24T05:28:40;15.60;99.90
7998;DHT22;4044;49.814;7.828;2023-06-24T05:31:06;15.70;99.90
7998;DHT22;4044;49.814;7.828;2023-06-24T05:33:31;15.80;99.90
7998;DHT22;4044;49.814;7.828;2023-06-24T05:35:57;15.90;99.90
7998;DHT22;4044;49.814;7.828;2023-06-24T05:38:22;16.00;99.90
7998;DHT22;4044;49.814;7.828;2023-06-24T05:40:48;16.10;99.90
7998;DHT22;4044;49.814;7.828;2023-06-24T05:43:13;16.20;99.90
7998;DHT22;4044;49.814;7.828;2023-06-24T05:45:39;16.30;99.90
7998;DHT22;4044;49.814;7.828;2023-06-24T05:48:05;16.40;99.90
7998;DHT22;4044;49.814;7.828;2023-06-24T05:50:30;16.50;99.90
7998;DHT22;4044;49.814;7.828;2023-06-24T05:52:56;16.60;99.90
7998;DHT22;4044;49.814;7.828;2023-06-24T05:55:21;16.70;99.90
7998;DHT22;4044;49.814;7.828;2023-06-24T05:57:47;16.80;99.90
7998;DHT22;4044;49.814;7.828;2023-06-24T06:00:12;16.90;99.90
7998;DHT22;4044;49.814;7.828;2023-06-24T06:02:38;17.00;99.90
7998;DHT22;4044;49.814;7.828;2023-06-24T06:05:04;17.10;99.90
7998;DHT22;4044;49.814;7.828;2023-06-24T06:07:30;17.30;99.90
7998;DHT22;4044;49.814;7.828;2023-06-24T06:09:55;17.40;99.90
7998;DHT22;4044;49.814;7.828;2023-06-24T06:12:21;17.50;99.90
7998;DHT22;4044;49.814;7.828;2023-06-24T06:14:46;17.70;99.90
7998;DHT22;4044;49.814;7.828;2023-06-24T06:17:13;17.70;99.90
7998;DHT22;4044;49.814;7.828;2023-06-24T06:19:39;17.90;99.90
7998;DHT22;4044;49.814;7.828;2023-06-24T06:22:07;18.00;99.90
7998;DHT22;4044;49.814;7.828;2023-06-24T06:24:33;18.10;99.90
7998;DHT22;4044;49.814;7.828;2023-06-24T06:26:58;18.30;99.90
7998;DHT22;4044;49.814;7.828;2023-06-24T06:29:24;18.30;99.90
7998;DHT22;4044;49.814;7.828;2023-06-24T06:31:50;18.40;99.90
7998;DHT22;4044;49.814;7.828;2023-06-24T06:34:15;18.50;99.90
7998;DHT22;4044;49.814;7.828;2023-06-24T06:36:41;18.60;99.90
7998;DHT22;4044;49.814;7.828;2023-06-24T06:39:06;18.70;99.90
7998;DHT22;4044;49.814;7.828;2023-06-24T06:41:32;18.80;99.90
7998;DHT22;4044;49.814;7.828;2023-06-24T06:43:57;19.00;99.90
7998;DHT22;4044;49.814;7.828;2023-06-24T06:46:23;19.10;99.90
7998;DHT22;4044;49.814;7.828;2023-06-24T06:48:48;19.20;99.90
7998;DHT22;4044;49.814;7.828;2023-06-24T06:51:14;19.30;99.90
7998;DHT22;4044;49.814;7.828;2023-06-24T06:53:39;19.50;99.90
7998;DHT22;4044;49.814;7.828;2023-06-24T06:56:05;19.60;99.90
7998;DHT22;4044;49.814;7.828;2023-06-24T06:58:30;19.80;99.90
7998;DHT22;4044;49.814;7.828;2023-06-24T07:00:56;19.90;99.90
7998;DHT22;4044;49.814;7.828;2023-06-24T07:03:26;20.00;99.90
7998;DHT22;4044;49.814;7.828;2023-06-24T07:05:53;20.20;99.90
7998;DHT22;4044;49.814;7.828;2023-06-24T07:08:18;20.30;99.90
7998;DHT22;4044;49.814;7.828;2023-06-24T07:10:44;20.50;99.90
7998;DHT22;4044;49.814;7.828;2023-06-24T07:13:10;20.60;99.90
7998;DHT22;4044;49.814;7.828;2023-06-24T07:15:35;20.70;99.90
7998;DHT22;4044;49.814;7.828;2023-06-24T07:18:01;20.70;99.90
7998;DHT22;4044;49.814;7.828;2023-06-24T07:20:26;20.90;99.90
7998;DHT22;4044;49.814;7.828;2023-06-24T07:22:52;21.10;99.90
7998;DHT22;4044;49.814;7.828;2023-06-24T07:25:17;21.20;99.90
7998;DHT22;4044;49.814;7.828;2023-06-24T07:27:43;21.30;99.90
7998;DHT22;4044;49.814;7.828;2023-06-24T07:30:08;21.50;99.90
7998;DHT22;4044;49.814;7.828;2023-06-24T07:32:34;21.60;99.90
7998;DHT22;4044;49.814;7.828;2023-06-24T07:34:59;21.80;99.90
7998;DHT22;4044;49.814;7.828;2023-06-24T07:37:25;22.00;99.90
7998;DHT22;4044;49.814;7.828;2023-06-24T07:39:51;22.10;99.90
7998;DHT22;4044;49.814;7.828;2023-06-24T07:42:16;22.20;99.90
7998;DHT22;4044;49.814;7.828;2023-06-24T07:44:47;22.20;99.90
7998;DHT22;4044;49.814;7.828;2023-06-24T07:47:14;22.40;99.90
7998;DHT22;4044;49.814;7.828;2023-06-24T07:49:39;22.50;99.90
7998;DHT22;4044;49.814;7.828;2023-06-24T07:52:05;22.70;99.90
7998;DHT22;4044;49.814;7.828;2023-06-24T07:54:31;22.80;99.90
7998;DHT22;4044;49.814;7.828;2023-06-24T07:56:57;23.00;99.90
7998;DHT22;4044;49.814;7.828;2023-06-24T07:59:23;23.00;99.90
7998;DHT22;4044;49.814;7.828;2023-06-24T08:01:48;23.10;99.90
7998;DHT22;4044;49.814;7.828;2023-06-24T08:04:14;23.20;99.90
7998;DHT22;4044;49.814;7.828;2023-06-24T08:06:41;23.40;99.90
7998;DHT22;4044;49.814;7.828;2023-06-24T08:09:06;23.50;99.90
7998;DHT22;4044;49.814;7.828;2023-06-24T08:11:32;23.60;99.50
7998;DHT22;4044;49.814;7.828;2023-06-24T08:13:57;23.70;98.80
7998;DHT22;4044;49.814;7.828;2023-06-24T08:16:23;23.80;98.10
7998;DHT22;4044;49.814;7.828;2023-06-24T08:18:49;24.00;98.30
7998;DHT22;4044;49.814;7.828;2023-06-24T08:21:14;24.00;96.80
7998;DHT22;4044;49.814;7.828;2023-06-24T08:23:39;24.10;96.60
7998;DHT22;4044;49.814;7.828;2023-06-24T08:26:06;24.30;97.20
7998;DHT22;4044;49.814;7.828;2023-06-24T08:28:33;24.40;96.90
7998;DHT22;4044;49.814;7.828;2023-06-24T08:30:58;24.50;96.30
7998;DHT22;4044;49.814;7.828;2023-06-24T08:33:24;24.60;95.40
7998;DHT22;4044;49.814;7.828;2023-06-24T08:35:49;24.80;95.60
7998;DHT22;4044;49.814;7.828;2023-06-24T08:38:15;24.90;94.40
7998;DHT22;4044;49.814;7.828;2023-06-24T08:40:41;24.90;93.80
7998;DHT22;4044;49.814;7.828;2023-06-24T08:43:09;25.10;94.20
7998;DHT22;4044;49.814;7.828;2023-06-24T08:45:34;25.30;93.60
7998;DHT22;4044;49.814;7.828;2023-06-24T08:48:00;25.40;93.30
7998;DHT22;4044;49.814;7.828;2023-06-24T08:50:35;25.60;92.70
7998;DHT22;4044;49.814;7.828;2023-06-24T08:53:03;25.70;91.20
7998;DHT22;4044;49.814;7.828;2023-06-24T08:55:32;25.70;89.90
7998;DHT22;4044;49.814;7.828;2023-06-24T08:57:59;25.80;90.50
7998;DHT22;4044;49.814;7.828;2023-06-24T09:00:26;25.90;89.70
7998;DHT22;4044;49.814;7.828;2023-06-24T09:02:52;26.00;89.80
7998;DHT22;4044;49.814;7.828;2023-06-24T09:05:17;26.00;87.30
7998;DHT22;4044;49.814;7.828;2023-06-24T09:07:43;26.10;87.10
7998;DHT22;4044;49.814;7.828;2023-06-24T09:10:09;26.20;86.70
7998;DHT22;4044;49.814;7.828;2023-06-24T09:12:35;26.30;87.80
7998;DHT22;4044;49.814;7.828;2023-06-24T09:15:01;26.50;87.60
7998;DHT22;4044;49.814;7.828;2023-06-24T09:17:27;26.70;87.40
7998;DHT22;4044;49.814;7.828;2023-06-24T09:19:54;26.80;86.50
7998;DHT22;4044;49.814;7.828;2023-06-24T09:22:28;26.90;84.80
7998;DHT22;4044;49.814;7.828;2023-06-24T09:24:56;27.10;84.70
7998;DHT22;4044;49.814;7.828;2023-06-24T09:27:21;27.10;83.10
7998;DHT22;4044;49.814;7.828;2023-06-24T09:29:49;27.30;82.70
7998;DHT22;4044;49.814;7.828;2023-06-24T09:32:14;27.40;80.00
7998;DHT22;4044;49.814;7.828;2023-06-24T09:34:40;27.50;79.10
7998;DHT22;4044;49.814;7.828;2023-06-24T09:37:06;27.60;76.60
7998;DHT22;4044;49.814;7.828;2023-06-24T09:39:39;27.60;76.50
7998;DHT22;4044;49.814;7.828;2023-06-24T09:42:05;27.70;77.70
7998;DHT22;4044;49.814;7.828;2023-06-24T09:44:34;27.90;80.70
7998;DHT22;4044;49.814;7.828;2023-06-24T09:47:00;28.20;81.20
7998;DHT22;4044;49.814;7.828;2023-06-24T09:49:25;28.40;79.40
7998;DHT22;4044;49.814;7.828;2023-06-24T09:52:01;28.40;79.20
7998;DHT22;4044;49.814;7.828;2023-06-24T09:54:28;28.60;79.00
7998;DHT22;4044;49.814;7.828;2023-06-24T09:56:59;28.70;78.80
7998;DHT22;4044;49.814;7.828;2023-06-24T09:59:26;28.70;76.50
7998;DHT22;4044;49.814;7.828;2023-06-24T10:01:53;28.90;74.90
7998;DHT22;4044;49.814;7.828;2023-06-24T10:04:20;29.10;74.60
7998;DHT22;4044;49.814;7.828;2023-06-24T10:06:47;29.20;75.50
7998;DHT22;4044;49.814;7.828;2023-06-24T10:09:13;29.40;72.40
7998;DHT22;4044;49.814;7.828;2023-06-24T10:11:43;29.60;74.10
7998;DHT22;4044;49.814;7.828;2023-06-24T10:14:08;29.80;73.70
7998;DHT22;4044;49.814;7.828;2023-06-24T10:16:34;29.70;71.00
7998;DHT22;4044;49.814;7.828;2023-06-24T10:19:01;29.70;73.40
7998;DHT22;4044;49.814;7.828;2023-06-24T10:21:53;30.00;73.90
7998;DHT22;4044;49.814;7.828;2023-06-24T10:24:29;30.10;69.50
7998;DHT22;4044;49.814;7.828;2023-06-24T10:27:01;30.30;71.30
7998;DHT22;4044;49.814;7.828;2023-06-24T10:29:36;30.40;69.20
7998;DHT22;4044;49.814;7.828;2023-06-24T10:32:08;30.30;67.50
7998;DHT22;4044;49.814;7.828;2023-06-24T10:35:20;30.50;67.80
7998;DHT22;4044;49.814;7.828;2023-06-24T10:37:32;30.60;65.10
7998;DHT22;4044;49.814;7.828;2023-06-24T10:39:58;30.50;67.40
7998;DHT22;4044;49.814;7.828;2023-06-24T10:42:41;30.80;67.50
7998;DHT22;4044;49.814;7.828;2023-06-24T10:47:37;31.10;65.40
7998;DHT22;4044;49.814;7.828;2023-06-24T10:50:08;31.20;65.80
7998;DHT22;4044;49.814;7.828;2023-06-24T10:52:41;31.10;64.90
7998;DHT22;4044;49.814;7.828;2023-06-24T10:55:08;31.00;66.00
7998;DHT22;4044;49.814;7.828;2023-06-24T10:57:34;31.00;67.00
7998;DHT22;4044;49.814;7.828;2023-06-24T11:00:01;30.70;63.80
7998;DHT22;4044;49.814;7.828;2023-06-24T11:02:29;30.80;66.00
7998;DHT22;4044;49.814;7.828;2023-06-24T11:04:56;30.60;64.50
7998;DHT22;4044;49.814;7.828;2023-06-24T11:07:26;30.60;65.60
7998;DHT22;4044;49.814;7.828;2023-06-24T11:09:59;30.70;65.70
7998;DHT22;4044;49.814;7.828;2023-06-24T11:12:26;31.10;65.20
7998;DHT22;4044;49.814;7.828;2023-06-24T11:14:54;31.50;64.80
7998;DHT22;4044;49.814;7.828;2023-06-24T11:17:20;31.70;62.70
7998;DHT22;4044;49.814;7.828;2023-06-24T11:19:46;31.90;62.10
7998;DHT22;4044;49.814;7.828;2023-06-24T11:22:11;32.20;63.30
7998;DHT22;4044;49.814;7.828;2023-06-24T11:24:37;32.20;60.80
7998;DHT22;4044;49.814;7.828;2023-06-24T11:27:05;32.70;60.50
7998;DHT22;4044;49.814;7.828;2023-06-24T11:29:32;32.90;59.80
7998;DHT22;4044;49.814;7.828;2023-06-24T11:31:58;32.70;59.10
7998;DHT22;4044;49.814;7.828;2023-06-24T11:34:23;33.10;58.40
7998;DHT22;4044;49.814;7.828;2023-06-24T11:36:49;32.90;57.40
7998;DHT22;4044;49.814;7.828;2023-06-24T11:39:25;33.00;58.00
7998;DHT22;4044;49.814;7.828;2023-06-24T11:41:51;33.20;58.30
7998;DHT22;4044;49.814;7.828;2023-06-24T11:44:21;33.40;57.20
7998;DHT22;4044;49.814;7.828;2023-06-24T11:46:48;33.50;55.20
7998;DHT22;4044;49.814;7.828;2023-06-24T11:49:14;33.80;56.70
7998;DHT22;4044;49.814;7.828;2023-06-24T11:51:50;33.60;55.70
7998;DHT22;4044;49.814;7.828;2023-06-24T11:54:17;33.70;56.40
7998;DHT22;4044;49.814;7.828;2023-06-24T11:56:51;33.80;54.30
7998;DHT22;4044;49.814;7.828;2023-06-24T11:59:22;34.80;54.10
7998;DHT22;4044;49.814;7.828;2023-06-24T12:01:56;36.40;52.30
7998;DHT22;4044;49.814;7.828;2023-06-24T12:04:33;37.50;51.60
7998;DHT22;4044;49.814;7.828;2023-06-24T12:07:02;38.70;50.30
7998;DHT22;4044;49.814;7.828;2023-06-24T12:09:29;39.90;49.70
7998;DHT22;4044;49.814;7.828;2023-06-24T12:11:54;40.60;46.90
7998;DHT22;4044;49.814;7.828;2023-06-24T12:14:20;41.70;46.10
7998;DHT22;4044;49.814;7.828;2023-06-24T12:16:45;41.90;45.00
7998;DHT22;4044;49.814;7.828;2023-06-24T12:19:11;40.50;44.10
7998;DHT22;4044;49.814;7.828;2023-06-24T12:21:37;40.90;45.00
7998;DHT22;4044;49.814;7.828;2023-06-24T12:24:03;40.90;45.10
7998;DHT22;4044;49.814;7.828;2023-06-24T12:26:30;40.80;44.00
7998;DHT22;4044;49.814;7.828;2023-06-24T12:28:56;42.10;45.70
7998;DHT22;4044;49.814;7.828;2023-06-24T12:31:22;42.80;45.50
7998;DHT22;4044;49.814;7.828;2023-06-24T12:33:48;43.90;43.10
7998;DHT22;4044;49.814;7.828;2023-06-24T12:36:13;44.60;42.30
7998;DHT22;4044;49.814;7.828;2023-06-24T12:38:39;45.50;41.50
7998;DHT22;4044;49.814;7.828;2023-06-24T12:41:04;46.10;40.40
7998;DHT22;4044;49.814;7.828;2023-06-24T12:43:30;46.00;41.30
7998;DHT22;4044;49.814;7.828;2023-06-24T12:45:55;45.10;40.30
7998;DHT22;4044;49.814;7.828;2023-06-24T12:48:21;43.80;41.10
7998;DHT22;4044;49.814;7.828;2023-06-24T12:50:47;42.30;40.60
7998;DHT22;4044;49.814;7.828;2023-06-24T12:53:14;40.90;41.50
7998;DHT22;4044;49.814;7.828;2023-06-24T12:55:41;39.90;43.40
7998;DHT22;4044;49.814;7.828;2023-06-24T12:58:07;39.00;43.40
7998;DHT22;4044;49.814;7.828;2023-06-24T13:00:32;38.70;44.40
7998;DHT22;4044;49.814;7.828;2023-06-24T13:02:58;39.50;43.30
7998;DHT22;4044;49.814;7.828;2023-06-24T13:05:23;41.10;43.80
7998;DHT22;4044;49.814;7.828;2023-06-24T13:07:50;42.50;41.70
7998;DHT22;4044;49.814;7.828;2023-06-24T13:10:15;43.80;41.40
7998;DHT22;4044;49.814;7.828;2023-06-24T13:12:41;44.90;39.00
7998;DHT22;4044;49.814;7.828;2023-06-24T13:15:07;45.60;39.30
7998;DHT22;4044;49.814;7.828;2023-06-24T13:17:34;45.60;39.00
7998;DHT22;4044;49.814;7.828;2023-06-24T13:20:00;46.40;37.80
7998;DHT22;4044;49.814;7.828;2023-06-24T13:22:27;46.80;35.90
7998;DHT22;4044;49.814;7.828;2023-06-24T13:24:53;46.20;37.80
7998;DHT22;4044;49.814;7.828;2023-06-24T13:27:18;47.00;36.50
7998;DHT22;4044;49.814;7.828;2023-06-24T13:29:44;47.30;35.60
7998;DHT22;4044;49.814;7.828;2023-06-24T13:32:10;47.00;36.80
7998;DHT22;4044;49.814;7.828;2023-06-24T13:34:35;47.80;37.30
7998;DHT22;4044;49.814;7.828;2023-06-24T13:37:01;48.20;36.70
7998;DHT22;4044;49.814;7.828;2023-06-24T13:39:26;48.80;36.00
7998;DHT22;4044;49.814;7.828;2023-06-24T13:41:52;49.60;35.60
7998;DHT22;4044;49.814;7.828;2023-06-24T13:44:18;50.50;33.90
7998;DHT22;4044;49.814;7.828;2023-06-24T13:46:44;51.10;33.30
7998;DHT22;4044;49.814;7.828;2023-06-24T13:49:10;49.90;33.60
7998;DHT22;4044;49.814;7.828;2023-06-24T13:51:35;48.60;34.00
7998;DHT22;4044;49.814;7.828;2023-06-24T13:54:01;47.20;34.50
7998;DHT22;4044;49.814;7.828;2023-06-24T13:56:27;46.10;35.00
7998;DHT22;4044;49.814;7.828;2023-06-24T13:58:54;45.40;36.20
7998;DHT22;4044;49.814;7.828;2023-06-24T14:01:20;46.60;35.90
7998;DHT22;4044;49.814;7.828;2023-06-24T14:03:47;47.20;35.20
7998;DHT22;4044;49.814;7.828;2023-06-24T14:06:18;46.70;34.40
7998;DHT22;4044;49.814;7.828;2023-06-24T14:08:44;47.10;34.70
7998;DHT22;4044;49.814;7.828;2023-06-24T14:11:10;47.20;34.50
7998;DHT22;4044;49.814;7.828;2023-06-24T14:13:36;47.60;34.70
7998;DHT22;4044;49.814;7.828;2023-06-24T14:16:02;48.00;33.90
7998;DHT22;4044;49.814;7.828;2023-06-24T14:18:27;48.70;34.70
7998;DHT22;4044;49.814;7.828;2023-06-24T14:20:57;49.00;32.90
7998;DHT22;4044;49.814;7.828;2023-06-24T14:23:22;49.30;32.10
7998;DHT22;4044;49.814;7.828;2023-06-24T14:25:48;48.30;32.70
7998;DHT22;4044;49.814;7.828;2023-06-24T14:28:14;47.20;34.00
7998;DHT22;4044;49.814;7.828;2023-06-24T14:30:39;47.80;34.40
7998;DHT22;4044;49.814;7.828;2023-06-24T14:33:06;47.20;33.20
7998;DHT22;4044;49.814;7.828;2023-06-24T14:35:32;46.80;33.50
7998;DHT22;4044;49.814;7.828;2023-06-24T14:37:57;46.80;33.40
7998;DHT22;4044;49.814;7.828;2023-06-24T14:40:23;46.80;34.70
7998;DHT22;4044;49.814;7.828;2023-06-24T14:42:48;46.90;34.00
7998;DHT22;4044;49.814;7.828;2023-06-24T14:45:14;47.60;34.40
7998;DHT22;4044;49.814;7.828;2023-06-24T14:47:40;48.40;33.60
7998;DHT22;4044;49.814;7.828;2023-06-24T14:50:05;49.30;32.80
7998;DHT22;4044;49.814;7.828;2023-06-24T14:52:31;49.20;32.80
7998;DHT22;4044;49.814;7.828;2023-06-24T14:54:57;49.10;33.30
7998;DHT22;4044;49.814;7.828;2023-06-24T14:57:22;50.20;32.20
7998;DHT22;4044;49.814;7.828;2023-06-24T14:59:51;50.70;32.00
7998;DHT22;4044;49.814;7.828;2023-06-24T15:02:16;50.90;31.30
7998;DHT22;4044;49.814;7.828;2023-06-24T15:04:43;48.30;31.40
7998;DHT22;4044;49.814;7.828;2023-06-24T15:07:08;46.70;33.70
7998;DHT22;4044;49.814;7.828;2023-06-24T15:09:34;45.70;33.80
7998;DHT22;4044;49.814;7.828;2023-06-24T15:12:00;44.60;34.90
7998;DHT22;4044;49.814;7.828;2023-06-24T15:14:25;43.80;35.00
7998;DHT22;4044;49.814;7.828;2023-06-24T15:16:51;43.20;35.40
7998;DHT22;4044;49.814;7.828;2023-06-24T15:19:19;42.20;36.20
7998;DHT22;4044;49.814;7.828;2023-06-24T15:21:44;41.20;36.50
7998;DHT22;4044;49.814;7.828;2023-06-24T15:24:10;40.50;38.00
7998;DHT22;4044;49.814;7.828;2023-06-24T15:26:35;39.70;38.20
7998;DHT22;4044;49.814;7.828;2023-06-24T15:29:01;39.20;38.10
7998;DHT22;4044;49.814;7.828;2023-06-24T15:31:27;38.90;38.60
7998;DHT22;4044;49.814;7.828;2023-06-24T15:33:52;38.90;39.00
7998;DHT22;4044;49.814;7.828;2023-06-24T15:36:18;39.00;38.90
7998;DHT22;4044;49.814;7.828;2023-06-24T15:38:45;39.00;38.50
7998;DHT22;4044;49.814;7.828;2023-06-24T15:41:11;39.00;39.40
7998;DHT22;4044;49.814;7.828;2023-06-24T15:43:36;38.90;39.30
7998;DHT22;4044;49.814;7.828;2023-06-24T15:46:01;38.90;39.50
7998;DHT22;4044;49.814;7.828;2023-06-24T15:48:27;38.70;39.60
7998;DHT22;4044;49.814;7.828;2023-06-24T15:50:53;38.50;39.70
7998;DHT22;4044;49.814;7.828;2023-06-24T15:53:18;38.60;39.80
7998;DHT22;4044;49.814;7.828;2023-06-24T15:55:44;38.90;39.70
7998;DHT22;4044;49.814;7.828;2023-06-24T15:58:09;38.90;39.70
7998;DHT22;4044;49.814;7.828;2023-06-24T16:00:35;39.10;39.40
7998;DHT22;4044;49.814;7.828;2023-06-24T16:03:00;39.70;38.90
7998;DHT22;4044;49.814;7.828;2023-06-24T16:05:26;40.20;38.60
7998;DHT22;4044;49.814;7.828;2023-06-24T16:07:51;41.50;37.80
7998;DHT22;4044;49.814;7.828;2023-06-24T16:10:17;43.30;37.10